Time;durP1;ratioP1;P1;durP2;ratioP2;P2;SDS_P1;SDS_P2;PMS_P1;PMS_P2;Temp;Humidity;BMP_temperature;BMP_pressure;BME280_temperature;BME280_humidity;BME280_pressure;Samples;Min_cycle;Max_cycle;Signal;HPM_P1;HPM_P2
2022/03/31 00:00:29;;;;;;;6.00;2.25;;;;;;;-0.06;52.56;99868.09;5056910;28;20045;-57
2022/03/31 00:02:59;;;;;;;7.72;2.20;;;;;;;-0.08;52.83;99872.38;5055915;28;20377;-58
2022/03/31 00:05:24;;;;;;;5.20;2.10;;;;;;;-0.09;52.82;99873.22;5062362;28;20040;-58
2022/03/31 00:07:52;;;;;;;3.58;1.85;;;;;;;-0.06;52.57;99878.44;5074000;28;20044;-58
2022/03/31 00:10:22;;;;;;;5.00;2.08;;;;;;;-0.08;52.55;99874.94;5070903;28;20037;-58
2022/03/31 00:12:48;;;;;;;7.07;2.80;;;;;;;-0.08;52.73;99877.53;5056641;28;20055;-58
2022/03/31 00:15:14;;;;;;;4.75;2.33;;;;;;;-0.13;52.62;99864.56;5075786;28;20453;-58
2022/03/31 00:17:39;;;;;;;6.15;2.72;;;;;;;-0.11;52.75;99870.63;5074025;28;20091;-58
2022/03/31 00:20:05;;;;;;;5.25;2.38;;;;;;;-0.13;52.72;99876.59;5069882;28;20504;-58
2022/03/31 00:22:30;;;;;;;6.50;2.38;;;;;;;-0.16;52.86;99876.56;5074813;28;20040;-58
2022/03/31 00:24:56;;;;;;;4.53;2.10;;;;;;;-0.24;53.23;99868.72;5055949;28;20029;-57
2022/03/31 00:27:21;;;;;;;5.47;1.92;;;;;;;-0.24;52.79;99866.13;5068965;28;20042;-58
2022/03/31 00:29:47;;;;;;;4.60;2.22;;;;;;;-0.23;52.90;99870.47;5075489;28;20037;-57
2022/03/31 00:32:13;;;;;;;6.45;2.33;;;;;;;-0.27;53.08;99866.97;5073226;28;20047;-58
2022/03/31 00:34:39;;;;;;;5.45;2.20;;;;;;;-0.27;53.07;99879.03;5054900;28;20082;-59
2022/03/31 00:37:05;;;;;;;5.43;2.15;;;;;;;-0.30;52.97;99874.66;5055516;28;20040;-59
2022/03/31 00:39:33;;;;;;;5.15;2.10;;;;;;;-0.36;53.33;99873.69;5054757;28;20169;-58
2022/03/31 00:42:02;;;;;;;5.43;2.53;;;;;;;-0.36;53.23;99869.44;5058946;28;20065;-59
2022/03/31 00:44:28;;;;;;;5.20;2.05;;;;;;;-0.40;53.24;99862.50;5060708;28;20024;-59
2022/03/31 00:46:55;;;;;;;5.20;2.72;;;;;;;-0.39;53.31;99864.22;5058659;28;20040;-59
2022/03/31 00:49:22;;;;;;;4.85;2.03;;;;;;;-0.42;53.52;99866.75;5059165;28;20063;-58
2022/03/31 00:51:50;;;;;;;3.85;2.13;;;;;;;-0.43;53.52;99866.75;5072435;28;20045;-57
2022/03/31 00:54:17;;;;;;;3.97;2.05;;;;;;;-0.45;53.41;99863.25;5055637;28;20427;-59
2022/03/31 00:56:43;;;;;;;3.70;1.70;;;;;;;-0.42;53.40;99858.16;5074867;28;20113;-59
2022/03/31 00:59:10;;;;;;;4.18;2.00;;;;;;;-0.55;53.78;99852.81;5064197;28;20080;-58
2022/03/31 01:01:38;;;;;;;4.35;1.80;;;;;;;-0.51;53.77;99858.88;5054892;28;20037;-58
2022/03/31 01:04:05;;;;;;;3.55;1.60;;;;;;;-0.53;53.53;99865.72;5063444;28;20064;-58
2022/03/31 01:06:31;;;;;;;4.15;2.03;;;;;;;-0.59;54.00;99858.78;5055785;28;20040;-59
2022/03/31 01:08:57;;;;;;;5.85;2.35;;;;;;;-0.63;53.72;99858.72;5062067;28;20043;-59
2022/03/31 01:11:23;;;;;;;3.90;1.73;;;;;;;-0.62;53.93;99855.28;5067592;28;20037;-58
2022/03/31 01:13:49;;;;;;;4.38;1.70;;;;;;;-0.67;54.00;99857.78;5054559;28;20388;-58
2022/03/31 01:16:15;;;;;;;4.47;2.00;;;;;;;-0.67;54.04;99854.34;5055108;28;20036;-58
2022/03/31 01:18:41;;;;;;;3.28;1.52;;;;;;;-0.68;53.84;99852.59;5069037;28;20091;-59
2022/03/31 01:21:06;;;;;;;5.70;2.00;;;;;;;-0.69;53.92;99856.00;5069611;28;20480;-59
2022/03/31 01:23:33;;;;;;;3.30;1.80;;;;;;;-0.69;54.08;99858.59;5054643;28;20369;-58
2022/03/31 01:25:59;;;;;;;4.05;1.67;;;;;;;-0.68;53.82;99857.75;5059427;28;20029;-58
2022/03/31 01:28:24;;;;;;;2.95;1.40;;;;;;;-0.67;53.82;99860.38;5054570;28;20040;-59
2022/03/31 01:30:49;;;;;;;4.25;1.38;;;;;;;-0.70;53.91;99856.88;5062064;28;20033;-59
2022/03/31 01:33:16;;;;;;;3.78;1.38;;;;;;;-0.77;54.20;99856.75;5053289;28;20039;-59
2022/03/31 01:35:42;;;;;;;4.20;1.77;;;;;;;-0.81;53.95;99854.97;5054004;28;20060;-59
2022/03/31 01:38:08;;;;;;;5.68;1.58;;;;;;;-0.87;54.27;99854.03;5054983;28;20044;-59
2022/03/31 01:40:35;;;;;;;2.42;1.42;;;;;;;-0.85;54.37;99857.50;5060318;28;20478;-59
2022/03/31 01:43:02;;;;;;;3.50;1.40;;;;;;;-0.87;54.24;99854.03;5063710;28;20041;-59
2022/03/31 01:45:27;;;;;;;3.53;1.48;;;;;;;-0.89;54.46;99866.88;5058610;28;20029;-59
2022/03/31 01:47:54;;;;;;;4.70;1.33;;;;;;;-0.91;54.51;99858.28;5071462;28;20047;-59
2022/03/31 01:50:20;;;;;;;3.65;1.60;;;;;;;-0.98;54.79;99850.41;5054154;28;20059;-59
2022/03/31 01:52:45;;;;;;;2.70;0.98;;;;;;;-0.92;54.54;99853.06;5054017;28;20060;-59
2022/03/31 01:55:11;;;;;;;4.20;1.10;;;;;;;-0.94;54.59;99853.06;5062010;28;20040;-59
2022/03/31 01:57:36;;;;;;;1.63;0.73;;;;;;;-0.97;54.45;99853.00;5054605;28;20476;-59
2022/03/31 02:00:05;;;;;;;2.55;1.00;;;;;;;-0.96;54.40;99856.44;5053479;28;20550;-59
2022/03/31 02:02:30;;;;;;;3.60;1.00;;;;;;;-0.97;54.43;99842.69;5072197;28;20483;-59
2022/03/31 02:04:56;;;;;;;2.15;0.95;;;;;;;-0.96;54.50;99852.16;5072259;28;20033;-59
2022/03/31 02:07:22;;;;;;;2.22;1.10;;;;;;;-0.99;54.81;99844.38;5062476;28;20037;-59
2022/03/31 02:09:48;;;;;;;2.60;1.25;;;;;;;-0.98;54.42;99846.09;5067062;28;20163;-59
2022/03/31 02:12:13;;;;;;;3.75;1.60;;;;;;;-1.01;54.70;99838.31;5064991;28;20094;-59
2022/03/31 02:14:40;;;;;;;3.40;1.42;;;;;;;-1.06;54.67;99845.13;5057536;28;20029;-59
2022/03/31 02:17:10;;;;;;;2.13;1.20;;;;;;;-1.07;54.80;99843.38;5052542;28;20025;-58
2022/03/31 02:19:36;;;;;;;3.40;1.33;;;;;;;-1.09;54.88;99840.75;5058673;28;20495;-57
2022/03/31 02:22:02;;;;;;;2.70;1.02;;;;;;;-1.08;54.98;99844.22;5056841;28;20072;-58
2022/03/31 02:24:29;;;;;;;3.13;1.30;;;;;;;-1.15;55.30;99850.13;5054938;28;20037;-59
2022/03/31 02:26:55;;;;;;;2.60;1.10;;;;;;;-1.15;55.11;99843.25;5073236;28;20027;-58
2022/03/31 02:29:21;;;;;;;3.22;1.10;;;;;;;-1.15;55.12;99847.56;5073237;28;20072;-58
2022/03/31 02:31:46;;;;;;;3.67;1.20;;;;;;;-1.17;55.27;99844.94;5054879;28;20043;-58
2022/03/31 02:34:13;;;;;;;3.15;1.40;;;;;;;-1.16;55.11;99838.91;5053749;28;20036;-59
2022/03/31 02:36:40;;;;;;;4.53;1.60;;;;;;;-1.19;55.33;99845.75;5069142;28;20032;-59
2022/03/31 02:39:07;;;;;;;3.33;1.48;;;;;;;-1.31;55.63;99836.97;5073463;28;20427;-59
2022/03/31 02:41:33;;;;;;;2.50;1.35;;;;;;;-1.27;55.45;99845.63;5056703;28;20112;-58
2022/03/31 02:43:59;;;;;;;4.28;1.50;;;;;;;-1.29;55.75;99845.59;5067822;28;20063;-59
2022/03/31 02:46:27;;;;;;;2.35;1.00;;;;;;;-1.24;55.53;99861.13;5073674;28;20453;-59
2022/03/31 02:48:55;;;;;;;3.58;1.30;;;;;;;-1.27;55.63;99864.53;5066149;28;20036;-59
2022/03/31 02:51:21;;;;;;;3.90;1.15;;;;;;;-1.33;55.94;99856.69;5073301;28;20040;-59
2022/03/31 02:56:31;;;;;;;2.90;1.70;;;;;;;-1.46;56.25;99854.72;5053371;28;20047;-58
2022/03/31 02:58:57;;;;;;;2.40;1.25;;;;;;;-1.46;56.47;99857.31;5065375;28;20048;-58
2022/03/31 03:01:22;;;;;;;3.00;1.60;;;;;;;-1.42;56.42;99859.09;5066873;28;20106;-59
2022/03/31 03:03:49;;;;;;;3.70;1.52;;;;;;;-1.42;56.30;99856.53;5052580;28;20037;-58
2022/03/31 03:06:15;;;;;;;5.18;1.50;;;;;;;-1.42;56.32;99853.94;5053938;28;20463;-58
2022/03/31 03:08:40;;;;;;;6.55;1.60;;;;;;;-1.41;56.08;99855.69;5053330;28;20120;-59
2022/03/31 03:11:07;;;;;;;2.88;1.40;;;;;;;-1.42;56.38;99858.25;5073194;28;20087;-59
2022/03/31 03:13:33;;;;;;;4.65;2.03;;;;;;;-1.46;56.55;99854.72;5056697;28;20033;-58
2022/03/31 03:15:59;;;;;;;3.53;2.00;;;;;;;-1.46;56.47;99859.88;5062702;28;20119;-59
2022/03/31 03:18:24;;;;;;;5.40;2.38;;;;;;;-1.47;56.66;99852.13;5068455;28;20447;-59
2022/03/31 03:20:50;;;;;;;6.43;2.83;;;;;;;-1.52;56.62;99857.19;5071784;28;20473;-58
2022/03/31 03:23:15;;;;;;;7.57;2.70;;;;;;;-1.52;56.71;99857.19;5070753;28;20541;-58
2022/03/31 03:25:40;;;;;;;6.18;2.50;;;;;;;-1.55;56.92;99857.16;5056430;28;20037;-58
2022/03/31 03:28:06;;;;;;;5.22;2.50;;;;;;;-1.57;56.91;99854.53;5059354;28;20068;-58
2022/03/31 03:30:32;;;;;;;5.90;2.55;;;;;;;-1.57;56.95;99853.66;5058958;28;20123;-57
2022/03/31 03:32:57;;;;;;;4.43;2.08;;;;;;;-1.55;57.03;99858.00;5076583;28;20111;-58
2022/03/31 03:35:23;;;;;;;6.72;2.10;;;;;;;-1.58;57.39;99859.66;5074864;28;20116;-58
2022/03/31 03:37:48;;;;;;;5.13;2.15;;;;;;;-1.59;57.26;99853.66;5076374;28;20108;-58
2022/03/31 03:40:15;;;;;;;6.28;2.10;;;;;;;-1.53;57.15;99856.31;5071390;28;20040;-58
2022/03/31 03:42:41;;;;;;;4.72;2.00;;;;;;;-1.52;57.19;99863.22;5076164;28;20024;-58
2022/03/31 03:45:09;;;;;;;2.92;1.50;;;;;;;-1.50;57.13;99863.25;5068045;28;20036;-58
2022/03/31 03:47:35;;;;;;;7.45;2.03;;;;;;;-1.44;56.81;99853.03;5058788;28;20032;-58
2022/03/31 03:50:00;;;;;;;5.22;1.70;;;;;;;-1.44;56.79;99860.75;5068538;28;20396;-59
2022/03/31 03:52:26;;;;;;;5.00;1.90;;;;;;;-1.43;56.97;99862.53;5061475;28;20032;-59
2022/03/31 03:54:51;;;;;;;4.07;1.40;;;;;;;-1.45;56.99;99858.19;5057101;28;20051;-58
2022/03/31 03:57:17;;;;;;;6.47;1.70;;;;;;;-1.42;56.95;99864.25;5064501;28;20488;-58
2022/03/31 03:59:43;;;;;;;4.43;1.58;;;;;;;-1.43;56.65;99867.69;5074609;28;20076;-58
2022/03/31 04:02:08;;;;;;;4.78;1.70;;;;;;;-1.50;57.41;99868.41;5065823;28;20094;-58
2022/03/31 04:04:34;;;;;;;6.70;2.13;;;;;;;-1.49;57.37;99872.72;5075845;28;20498;-58
2022/03/31 04:06:59;;;;;;;5.32;2.40;;;;;;;-1.52;57.43;99872.66;5063939;28;20037;-58
2022/03/31 04:09:25;;;;;;;6.22;2.00;;;;;;;-1.47;57.36;99865.03;5059349;28;20110;-58
2022/03/31 04:11:51;;;;;;;5.18;2.25;;;;;;;-1.51;57.33;99866.69;5060866;28;20033;-58
2022/03/31 04:14:17;;;;;;;2.58;1.45;;;;;;;-1.53;57.27;99865.75;5061105;28;20123;-57
2022/03/31 04:16:43;;;;;;;3.42;1.90;;;;;;;-1.54;57.42;99864.03;5063012;28;20060;-58
2022/03/31 04:19:09;;;;;;;3.90;1.90;;;;;;;-1.57;57.53;99857.09;5065056;28;20045;-58
2022/03/31 04:21:36;;;;;;;3.72;2.10;;;;;;;-1.59;57.47;99868.25;5056181;28;20029;-58
2022/03/31 04:24:02;;;;;;;5.55;2.53;;;;;;;-1.56;57.41;99876.00;5054652;28;20033;-59
2022/03/31 04:26:28;;;;;;;6.75;2.67;;;;;;;-1.53;57.41;99868.34;5055298;28;20465;-58
2022/03/31 04:29:01;;;;;;;8.98;3.63;;;;;;;-1.47;57.25;99873.63;5060047;28;20034;-58
2022/03/31 04:31:27;;;;;;;8.60;3.55;;;;;;;-1.47;57.34;99875.34;5075539;28;20035;-58
2022/03/31 04:33:52;;;;;;;8.77;3.67;;;;;;;-1.43;57.23;99871.97;5072832;28;20037;-58
2022/03/31 04:36:18;;;;;;;10.63;4.15;;;;;;;-1.39;56.99;99879.78;5070392;28;20127;-58
2022/03/31 04:38:45;;;;;;;12.55;4.95;;;;;;;-1.35;56.98;99879.00;5055610;28;20069;-58
2022/03/31 04:41:10;;;;;;;9.60;4.38;;;;;;;-1.35;57.08;99876.41;5072466;28;20055;-58
2022/03/31 04:43:36;;;;;;;13.18;4.70;;;;;;;-1.33;57.10;99873.84;5064756;28;20033;-58
2022/03/31 04:46:01;;;;;;;9.10;4.75;;;;;;;-1.24;56.84;99868.84;5069409;28;20403;-57
2022/03/31 04:48:29;;;;;;;18.45;7.03;;;;;;;-1.22;56.92;99868.91;5066621;28;20036;-59
2022/03/31 04:50:54;;;;;;;11.25;4.30;;;;;;;-1.21;56.97;99873.22;5074968;28;20044;-58
2022/03/31 04:53:19;;;;;;;7.63;3.50;;;;;;;-1.18;56.75;99871.56;5057921;28;20033;-59
2022/03/31 04:55:45;;;;;;;9.45;3.53;;;;;;;-1.15;56.76;99869.03;5071171;28;20058;-60
2022/03/31 04:58:11;;;;;;;7.47;2.92;;;;;;;-1.15;56.74;99875.91;5059469;28;20212;-59
2022/03/31 05:00:37;;;;;;;7.25;3.10;;;;;;;-1.09;56.66;99858.81;5055815;28;20039;-58
2022/03/31 05:03:02;;;;;;;6.10;2.75;;;;;;;-1.03;56.29;99874.41;5074344;28;20120;-57
2022/03/31 05:05:28;;;;;;;5.13;3.00;;;;;;;-0.93;56.20;99869.41;5073943;28;20035;-57
2022/03/31 05:07:53;;;;;;;4.72;2.10;;;;;;;-0.88;55.95;99876.34;5054260;28;20033;-57
2022/03/31 05:10:19;;;;;;;4.10;2.03;;;;;;;-0.84;56.02;99875.59;5055066;28;20465;-60
2022/03/31 05:12:44;;;;;;;4.97;2.22;;;;;;;-0.72;55.64;99874.03;5053394;28;20033;-57
2022/03/31 05:15:11;;;;;;;7.40;2.40;;;;;;;-0.61;55.30;99878.50;5058277;28;20033;-57
2022/03/31 05:17:37;;;;;;;5.88;2.30;;;;;;;-0.51;55.08;99888.13;5067075;28;20123;-58
2022/03/31 05:20:10;;;;;;;5.15;2.65;;;;;;;-0.44;54.92;99881.34;5073924;28;20391;-58
2022/03/31 05:22:38;;;;;;;6.07;2.58;;;;;;;-0.40;54.84;99883.16;5059683;28;20029;-58
2022/03/31 05:25:04;;;;;;;10.85;3.10;;;;;;;-0.25;54.59;99880.75;5068673;28;20051;-56
2022/03/31 05:27:30;;;;;;;10.43;4.22;;;;;;;-0.14;53.94;99886.06;5062073;28;20028;-58
2022/03/31 05:29:57;;;;;;;10.00;3.97;;;;;;;0.02;53.59;99887.16;5055078;28;20048;-58
2022/03/31 05:32:23;;;;;;;16.35;6.72;;;;;;;0.14;53.33;99897.63;5065567;28;20036;-58
2022/03/31 05:34:49;;;;;;;23.40;8.98;;;;;;;0.23;53.19;99899.47;5052940;28;20408;-58
2022/03/31 05:37:14;;;;;;;23.35;10.55;;;;;;;0.28;53.03;99891.75;5068206;28;20519;-58
2022/03/31 05:39:40;;;;;;;32.45;14.07;;;;;;;0.34;52.76;99899.59;5069468;28;20093;-59
2022/03/31 05:42:06;;;;;;;34.17;15.05;;;;;;;0.46;52.64;99892.84;5060638;28;20481;-59
2022/03/31 05:44:31;;;;;;;34.70;15.38;;;;;;;0.60;52.37;99898.19;5070433;28;20051;-59
2022/03/31 05:46:58;;;;;;;32.47;14.13;;;;;;;0.66;52.05;99906.00;5071626;28;20036;-58
2022/03/31 05:49:24;;;;;;;31.92;12.05;;;;;;;0.81;51.88;99904.44;5072812;28;20388;-58
2022/03/31 05:51:49;;;;;;;32.75;12.27;;;;;;;0.88;51.71;99906.25;5073306;28;20461;-59
2022/03/31 05:54:14;;;;;;;20.88;8.30;;;;;;;1.02;51.47;99916.72;5072336;28;20241;-59
2022/03/31 05:56:40;;;;;;;16.35;5.50;;;;;;;1.16;51.12;99917.72;5072195;28;20033;-58
2022/03/31 05:59:05;;;;;;;13.57;4.00;;;;;;;1.22;50.36;99910.00;5072903;28;20045;-58
2022/03/31 06:01:31;;;;;;;10.18;3.25;;;;;;;1.38;50.12;99918.75;5073665;28;20107;-58
2022/03/31 06:03:57;;;;;;;7.75;3.30;;;;;;;1.50;49.73;99920.56;5072967;28;20089;-59
2022/03/31 06:06:25;;;;;;;9.18;3.22;;;;;;;1.48;49.51;99920.56;5073672;28;20141;-59
2022/03/31 06:08:51;;;;;;;6.95;2.95;;;;;;;1.58;49.49;99919.78;5073656;28;20515;-59
2022/03/31 06:11:17;;;;;;;6.80;2.55;;;;;;;1.76;49.00;99923.38;5073726;28;20469;-59
2022/03/31 06:13:43;;;;;;;9.43;4.20;;;;;;;1.84;49.10;99922.56;5073416;28;20063;-58
2022/03/31 06:16:10;;;;;;;7.80;3.30;;;;;;;1.85;48.62;99931.19;5073728;28;20380;-60
2022/03/31 06:18:36;;;;;;;6.30;2.72;;;;;;;1.96;48.73;99933.00;5068677;28;20052;-58
2022/03/31 06:21:02;;;;;;;9.27;3.22;;;;;;;2.04;48.53;99927.84;5071300;28;20040;-58
2022/03/31 06:23:28;;;;;;;6.03;3.00;;;;;;;2.04;48.68;99927.84;5067072;28;20040;-59
2022/03/31 06:25:53;;;;;;;9.70;3.85;;;;;;;2.10;48.22;99927.00;5072578;28;20354;-58
2022/03/31 06:28:19;;;;;;;7.95;2.97;;;;;;;2.08;48.10;99942.56;5072524;28;20040;-58
2022/03/31 06:30:47;;;;;;;8.07;3.00;;;;;;;2.04;48.11;99938.22;5072369;28;20455;-58
2022/03/31 06:33:15;;;;;;;7.85;2.60;;;;;;;2.15;47.55;99940.84;5073106;28;20047;-58
2022/03/31 06:35:40;;;;;;;10.20;2.92;;;;;;;2.23;47.90;99944.34;5073281;28;20037;-58
2022/03/31 06:38:06;;;;;;;7.50;3.28;;;;;;;2.18;47.70;99943.47;5072066;28;20380;-59
2022/03/31 06:40:36;;;;;;;6.57;2.90;;;;;;;2.34;47.28;99958.25;5073797;28;20045;-59
2022/03/31 06:43:01;;;;;;;10.50;3.30;;;;;;;2.37;46.89;99941.84;5073954;28;20380;-59
2022/03/31 06:45:27;;;;;;;6.47;3.15;;;;;;;2.40;46.49;99936.69;5086627;28;20027;-59
2022/03/31 06:47:53;;;;;;;7.60;2.72;;;;;;;2.51;46.42;99940.16;5077000;28;20040;-59
2022/03/31 06:50:18;;;;;;;10.88;3.00;;;;;;;2.45;46.04;99942.75;5077376;28;20025;-59
2022/03/31 06:52:44;;;;;;;5.50;2.65;;;;;;;2.54;44.90;99942.75;5077281;28;20032;-59
2022/03/31 06:55:09;;;;;;;8.48;3.20;;;;;;;2.53;44.95;99943.63;5077400;28;20396;-60
2022/03/31 06:57:35;;;;;;;12.25;5.13;;;;;;;2.65;44.62;99945.41;5077301;28;20043;-58
2022/03/31 07:00:01;;;;;;;7.05;2.97;;;;;;;2.71;44.32;99946.31;5076766;28;20056;-59
2022/03/31 07:02:27;;;;;;;4.78;2.83;;;;;;;2.86;44.41;99949.78;5077290;28;20081;-59
2022/03/31 07:04:53;;;;;;;6.60;2.35;;;;;;;2.95;43.86;99955.00;5077635;28;20108;-59
2022/03/31 07:07:19;;;;;;;5.40;2.63;;;;;;;2.91;43.74;99959.34;5076612;28;20043;-59
2022/03/31 07:09:44;;;;;;;7.25;2.42;;;;;;;3.08;43.74;99956.78;5077188;28;20040;-58
2022/03/31 07:12:10;;;;;;;9.20;2.40;;;;;;;3.12;43.34;99957.66;5076862;28;20070;-58
2022/03/31 07:14:37;;;;;;;9.52;2.25;;;;;;;3.11;43.51;99948.09;5077031;28;20487;-59
2022/03/31 07:17:03;;;;;;;7.20;3.20;;;;;;;3.30;42.90;99955.06;5076708;28;20132;-58
2022/03/31 07:19:29;;;;;;;9.80;4.05;;;;;;;3.26;42.83;99960.25;5075564;28;20028;-58
2022/03/31 07:21:55;;;;;;;5.82;2.55;;;;;;;3.38;42.46;99949.88;5073842;28;20029;-58
2022/03/31 07:24:20;;;;;;;6.32;2.50;;;;;;;3.33;41.90;99964.59;5070186;28;20037;-59
2022/03/31 07:26:46;;;;;;;6.93;2.83;;;;;;;3.43;42.14;99950.75;5074789;28;20030;-58
2022/03/31 07:29:11;;;;;;;6.60;2.65;;;;;;;3.47;41.82;99944.69;5095588;28;20051;-58
2022/03/31 07:31:36;;;;;;;5.15;2.38;;;;;;;3.44;41.04;99955.09;5096339;28;20042;-58
2022/03/31 07:34:02;;;;;;;8.85;2.83;;;;;;;3.69;41.30;99951.63;5094185;28;20040;-58
2022/03/31 07:36:28;;;;;;;5.47;2.70;;;;;;;3.66;41.23;99955.94;5096622;28;20093;-58
2022/03/31 07:38:53;;;;;;;6.90;2.80;;;;;;;3.80;40.72;99968.94;5095788;28;20480;-58
2022/03/31 07:41:19;;;;;;;8.38;3.30;;;;;;;3.97;41.08;99961.13;5087504;28;20036;-58
2022/03/31 07:43:44;;;;;;;7.43;3.40;;;;;;;4.08;41.04;99949.84;5074878;28;21305;-58
2022/03/31 07:46:10;;;;;;;9.27;4.05;;;;;;;4.16;40.74;99953.28;5074329;28;20044;-58
2022/03/31 07:48:37;;;;;;;7.45;2.95;;;;;;;4.23;40.55;99956.75;5076173;28;20029;-58
2022/03/31 07:51:02;;;;;;;4.70;2.50;;;;;;;4.29;40.47;99953.25;5076249;28;20166;-58
2022/03/31 07:53:33;;;;;;;5.25;2.85;;;;;;;4.41;40.34;99958.41;5076227;28;20078;-58
2022/03/31 07:56:03;;;;;;;8.32;3.75;;;;;;;4.40;39.58;99947.16;5075620;28;20028;-58
2022/03/31 07:58:29;;;;;;;11.40;5.50;;;;;;;4.58;39.81;99953.13;5075773;28;20127;-57
2022/03/31 08:00:54;;;;;;;7.00;2.97;;;;;;;4.61;39.49;99951.38;5072497;28;20396;-58
2022/03/31 08:03:20;;;;;;;6.00;2.17;;;;;;;4.61;39.39;99969.59;5074558;28;20457;-58
2022/03/31 08:05:46;;;;;;;6.55;2.10;;;;;;;4.63;38.82;99957.47;5075785;28;20032;-58
2022/03/31 08:08:12;;;;;;;5.28;2.38;;;;;;;4.73;39.23;99954.81;5075547;28;20041;-58
2022/03/31 08:10:37;;;;;;;6.00;2.75;;;;;;;4.88;39.01;99955.59;5065469;28;20044;-59
2022/03/31 08:13:04;;;;;;;5.00;2.00;;;;;;;4.97;38.46;99949.47;5067658;28;20044;-59
2022/03/31 08:15:29;;;;;;;3.90;2.10;;;;;;;4.89;37.18;99948.66;5067904;28;20033;-59
2022/03/31 08:17:55;;;;;;;10.25;2.25;;;;;;;5.03;37.65;99965.09;5068312;28;20086;-59
2022/03/31 08:20:21;;;;;;;3.80;2.33;;;;;;;5.02;37.64;99952.91;5075376;28;20033;-58
2022/03/31 08:22:47;;;;;;;4.20;2.10;;;;;;;5.06;37.61;99943.34;5075648;28;20032;-58
2022/03/31 08:25:13;;;;;;;6.05;2.50;;;;;;;5.11;37.34;99942.47;5075339;28;20090;-58
2022/03/31 08:27:40;;;;;;;5.10;2.10;;;;;;;5.24;37.48;99950.19;5075354;28;20056;-58
2022/03/31 08:30:10;;;;;;;4.38;1.85;;;;;;;5.14;36.84;99963.25;5075179;28;20025;-58
2022/03/31 08:32:38;;;;;;;4.30;2.22;;;;;;;5.30;37.04;99943.19;5073582;28;20079;-58
2022/03/31 08:35:05;;;;;;;5.38;2.08;;;;;;;5.38;37.06;99953.53;5073076;28;20072;-58
2022/03/31 08:37:31;;;;;;;5.45;2.05;;;;;;;5.50;36.74;99947.38;5074818;28;20047;-58
2022/03/31 08:39:56;;;;;;;5.75;1.70;;;;;;;5.71;36.70;99943.75;5064854;28;20104;-59
2022/03/31 08:42:22;;;;;;;4.53;2.50;;;;;;;5.76;36.40;99955.84;5065430;28;20036;-58
2022/03/31 08:44:50;;;;;;;4.82;2.00;;;;;;;5.54;35.05;99962.97;5075001;28;20039;-58
2022/03/31 08:47:17;;;;;;;4.20;1.90;;;;;;;5.66;35.02;99957.69;5070703;28;20051;-59
2022/03/31 08:49:46;;;;;;;4.47;2.30;;;;;;;5.80;34.80;99960.16;5056039;28;20111;-59
2022/03/31 08:52:11;;;;;;;4.55;2.35;;;;;;;5.75;35.09;99946.31;5074376;28;20036;-59
2022/03/31 08:54:36;;;;;;;7.25;2.47;;;;;;;5.91;35.35;99942.69;5060241;28;20027;-60
2022/03/31 08:57:02;;;;;;;5.15;1.95;;;;;;;6.03;35.47;99941.72;5083888;28;20120;-59
2022/03/31 08:59:27;;;;;;;3.28;1.67;;;;;;;6.12;34.92;99941.63;5075636;28;20411;-59
2022/03/31 09:01:53;;;;;;;8.63;3.33;;;;;;;6.09;34.73;99946.00;5073512;28;20033;-60
2022/03/31 09:04:22;;;;;;;4.43;2.20;;;;;;;6.23;34.17;99945.88;5058387;28;20041;-59
2022/03/31 09:06:59;;;;;;;7.30;2.88;;;;;;;6.27;34.09;99955.41;5060712;28;20035;-59
2022/03/31 09:09:25;;;;;;;6.35;2.55;;;;;;;6.37;34.26;99938.75;5055562;28;20037;-59
2022/03/31 09:11:50;;;;;;;5.03;1.90;;;;;;;6.18;33.94;99940.69;5060705;28;20040;-59
2022/03/31 09:14:16;;;;;;;3.35;2.28;;;;;;;6.15;33.72;99946.81;5072429;28;20082;-59
2022/03/31 09:16:43;;;;;;;8.23;3.97;;;;;;;6.18;33.35;99945.91;5078231;28;20196;-59
2022/03/31 09:19:10;;;;;;;5.03;2.47;;;;;;;6.34;33.01;99936.16;5073482;28;20037;-59
2022/03/31 09:21:58;;;;;;;6.20;2.10;;;;;;;6.46;31.98;99938.63;5055618;28;20091;-59
2022/03/31 09:24:29;;;;;;;3.50;2.08;;;;;;;6.38;32.92;99937.84;5074795;28;20060;-59
2022/03/31 09:26:56;;;;;;;5.78;2.17;;;;;;;6.44;32.59;99937.81;5074389;28;20471;-59
2022/03/31 09:29:33;;;;;;;4.53;2.65;;;;;;;6.52;32.53;99935.97;5073817;28;20040;-59
2022/03/31 09:32:13;;;;;;;7.25;3.50;;;;;;;6.53;31.59;99937.69;5070359;28;20479;-59
2022/03/31 09:34:43;;;;;;;7.82;3.17;;;;;;;6.49;31.83;99930.78;5070853;28;20081;-59
2022/03/31 09:37:09;;;;;;;5.38;3.00;;;;;;;6.33;32.87;99927.47;5073248;28;20040;-58
2022/03/31 09:39:42;;;;;;;4.75;2.60;;;;;;;6.59;32.59;99936.75;5053160;28;20393;-58
2022/03/31 09:42:17;;;;;;;3.85;2.15;;;;;;;6.69;32.35;99927.91;5049885;28;20029;-58
2022/03/31 09:44:43;;;;;;;4.75;2.42;;;;;;;6.94;32.87;99936.28;5050560;28;20039;-59
2022/03/31 09:47:09;;;;;;;7.95;5.28;;;;;;;7.05;32.67;99926.53;5054863;28;20041;-56
2022/03/31 09:49:35;;;;;;;8.35;4.20;;;;;;;6.99;32.11;99951.91;5050099;28;20036;-59
2022/03/31 09:52:03;;;;;;;9.40;3.38;;;;;;;7.18;31.67;99942.03;5050853;28;20037;-57
2022/03/31 09:54:31;;;;;;;7.40;3.20;;;;;;;7.16;31.31;99934.22;5050748;28;20092;-59
2022/03/31 09:56:59;;;;;;;4.15;2.78;;;;;;;7.10;30.85;99931.69;5050676;28;20060;-59
2022/03/31 09:59:33;;;;;;;9.93;4.95;;;;;;;7.05;31.13;99931.75;5050577;28;20036;-59
2022/03/31 10:02:00;;;;;;;8.05;3.40;;;;;;;7.01;32.13;99932.69;5051104;28;20037;-58
2022/03/31 10:04:26;;;;;;;6.93;2.83;;;;;;;7.24;32.09;99921.06;5050735;28;20060;-59
2022/03/31 10:06:51;;;;;;;7.85;2.70;;;;;;;7.39;31.95;99924.28;5050394;28;20449;-59
2022/03/31 10:09:17;;;;;;;4.95;2.50;;;;;;;7.32;31.66;99919.19;5050452;28;20041;-58
2022/03/31 10:11:45;;;;;;;5.38;2.10;;;;;;;7.28;30.49;99920.97;5050420;28;20033;-59
2022/03/31 10:14:18;;;;;;;5.32;2.30;;;;;;;7.32;30.91;99913.94;5050613;28;20033;-57
2022/03/31 10:16:48;;;;;;;5.00;2.22;;;;;;;7.28;30.94;99914.88;5050419;28;20037;-59
2022/03/31 10:19:40;;;;;;;5.97;1.90;;;;;;;7.11;29.85;99918.63;5050333;28;20112;-56
2022/03/31 10:24:41;;;;;;;7.85;2.00;;;;;;;7.22;30.50;99917.59;5050347;28;20029;-56
2022/03/31 10:24:57;;;;;;;4.68;1.65;;;;;;;7.33;30.71;99913.06;5050594;28;20072;-57
2022/03/31 10:27:28;;;;;;;4.53;1.90;;;;;;;7.50;29.58;99912.78;5050185;28;20211;-56
2022/03/31 10:30:05;;;;;;;5.68;2.40;;;;;;;7.60;29.95;99909.13;5048863;28;20354;-58
2022/03/31 10:32:31;;;;;;;8.27;2.20;;;;;;;7.60;29.89;99907.38;5050139;28;20159;-56
2022/03/31 10:34:56;;;;;;;3.63;2.20;;;;;;;7.48;29.58;99910.19;5048495;28;20052;-57
2022/03/31 10:37:36;;;;;;;3.67;2.15;;;;;;;7.45;29.14;99905.00;5049199;28;20116;-57
2022/03/31 10:40:05;;;;;;;5.20;1.60;;;;;;;7.83;30.11;99903.50;5048591;28;20037;-56
2022/03/31 10:42:30;;;;;;;6.47;2.53;;;;;;;7.91;29.10;99909.47;5049724;28;20075;-58
2022/03/31 10:45:12;;;;;;;7.10;2.05;;;;;;;8.09;28.74;99903.88;5049654;28;20064;-58
2022/03/31 10:47:40;;;;;;;3.72;1.90;;;;;;;8.18;29.19;99901.97;5050131;28;20037;-57
2022/03/31 10:50:08;;;;;;;4.18;2.00;;;;;;;8.27;29.06;99901.81;5041744;28;20040;-59
2022/03/31 10:52:34;;;;;;;5.85;2.35;;;;;;;8.33;28.99;99896.44;5036197;28;20025;-58
2022/03/31 10:55:10;;;;;;;3.55;2.15;;;;;;;8.49;28.63;99900.50;5035316;28;20032;-58
2022/03/31 10:57:42;;;;;;;6.00;2.53;;;;;;;8.41;28.08;99897.16;5036230;28;20029;-59
2022/03/31 11:00:10;;;;;;;5.07;2.40;;;;;;;8.23;28.37;99897.53;5036297;28;20087;-58
2022/03/31 11:02:46;;;;;;;3.75;2.45;;;;;;;8.14;27.85;99902.06;5036054;28;20469;-58
2022/03/31 11:05:12;;;;;;;4.05;1.80;;;;;;;8.25;28.49;99899.19;5036261;28;20031;-56
2022/03/31 11:07:38;;;;;;;4.75;2.30;;;;;;;8.24;27.66;99891.41;5035078;28;20112;-58
2022/03/31 11:10:10;;;;;;;5.47;2.05;;;;;;;8.39;27.83;99894.59;5036048;28;20045;-56
2022/03/31 11:12:36;;;;;;;7.75;3.03;;;;;;;8.64;28.56;99896.69;5036013;28;20539;-55
2022/03/31 11:15:18;;;;;;;5.65;3.20;;;;;;;8.63;27.44;99885.38;5036128;28;20026;-55
2022/03/31 11:17:44;;;;;;;3.88;2.70;;;;;;;8.66;28.12;99894.94;5035962;28;20434;-57
2022/03/31 11:20:21;;;;;;;6.88;3.40;;;;;;;8.66;27.78;99884.44;5035899;28;20065;-56
2022/03/31 11:22:48;;;;;;;9.43;3.92;;;;;;;8.54;28.04;99888.19;5035819;28;20475;-57
2022/03/31 11:25:15;;;;;;;7.85;3.10;;;;;;;8.24;28.11;99894.88;5035848;28;20083;-56
2022/03/31 11:27:42;;;;;;;7.70;2.97;;;;;;;8.24;28.42;99884.41;5035697;28;20033;-58
2022/03/31 11:30:32;;;;;;;4.82;2.70;;;;;;;8.29;27.58;99877.31;5035741;28;20462;-57
2022/03/31 11:32:58;;;;;;;8.93;3.70;;;;;;;8.35;28.37;99879.81;5035791;28;20081;-57
2022/03/31 11:35:25;;;;;;;6.95;3.00;;;;;;;8.01;27.98;99879.59;5035683;28;20037;-57
2022/03/31 11:37:55;;;;;;;3.20;2.45;;;;;;;8.23;27.65;99873.97;5035104;28;20049;-58